x

Buoy E01 - Central Maine Shelf (44032) Wave Buoy

12:04 - Wed 30th Jul 2014 All times are EDT. -4 hours from GMT.

  • Sig Wave height 4.3ft
  • Peak Period 8s
  • Wind
    7mph, 9mph gusts
  • Sea Temp 62°f
  • Aire Temp 62°f
  • Sea Pressure 1015.2mb
  • Buoy E01 - Central Maine Shelf
  • Buoy E01 - Central Maine Shelf

More Historic Weather Station data

Upgrade to MSW Pro to gain access to the past 30 days of data for over 8000 Wavebouys and Weather Stations around the globe.

Join Pro

Comparision Forecast

View Surf forecast
   
mié 07/30 12:04 4.5ft 8s 7 9 mph 1015.2mb 62f 62f
11:04 4ft 8s 7 9 mph 1015.5mb 62f 62f
10:04 4.5ft 8s 9
mph
1015.6mb 61f 62f
9:04 4.5ft 8s 7
mph
1015.7mb 61f 62f
8:04 3.5ft 8s 4
mph
1015.5mb 61f 62f
7:04 3.5ft 8s 9 11 mph 1015.2mb 61f 62f
6:04 3.5ft 8s 9 11 mph 1014.6mb 61f 62f
5:04 3.5ft 11s 7 9 mph 1014.2mb 61f 62f
4:04 3.5ft 8s 7 9 mph 1013.7mb 61f 62f
3:04 4.5ft 11s 7
mph
1013.5mb 62f 62f
2:04 4ft 11s 4
mph
1013.6mb 62f 62f
1:04 4.5ft 8s 2
mph
1013.6mb 62f 63f
12:04 4.5ft 8s 2
mph
1012.9mb 62f 64f
mar 07/29 11:04 5ft 8s 4
mph
1012.8mb 62f 64f
10:04 4.5ft 8s 4 7 mph 1012.7mb 62f 64f
9:04 5ft 8s 4 7 mph 1012.4mb 62f 64f
8:04 4.5ft 8s 4 7 mph 1012mb 62f 64f
7:04 4.5ft 11s 4 7 mph 1011.3mb 62f 65f
6:04 4.5ft 8s 7
mph
1010.8mb 62f 65f
5:04 5ft 8s 9 11 mph 1010.2mb 62f 65f
4:04 5.5ft 8s 9
mph
1009.4mb 62f 64f
3:04 5ft 8s 9 11 mph 1008.9mb 62f 64f
2:04 6ft 8s 9 11 mph 1007.9mb 62f 64f
1:04 6ft 8s 7
mph
1007.3mb 62f 63f
12:04 6ft 8s 9
mph
1007mb 61f 63f
11:04 5ft 8s 9 11 mph 1006.2mb 61f 63f
10:04 4.5ft 8s 9 11 mph 1005.6mb 61f 62f
9:04 4.5ft 6s 13 16 mph 1004.6mb 61f 62f
8:04 4.5ft 8s 11 13 mph 1003.9mb 61f 63f
7:04 4.5ft 8s 11 13 mph 1002.4mb 61f 63f
6:04 4.5ft 6s 9 11 mph 1001.7mb 61f 63f
5:04 4.5ft 6s 11 13 mph 1000.7mb 61f 63f
4:04 4.5ft 6s 13 18 mph 999.8mb 61f 64f
3:04 5ft 6s 16 18 mph 998.7mb 61f 64f
2:04 4.5ft 6s 13 16 mph 998.4mb 61f 64f
1:04 5ft 6s 13 16 mph 997.9mb 61f 64f
12:04 5ft 6s 13 16 mph 997.7mb 61f 65f
lun 07/28 11:04 5ft 6s 16 18 mph 997.3mb 61f 65f
10:04 4ft 6s 13 16 mph 997.3mb 61f 65f
9:04 3.5ft 5s 20 25 mph 997.7mb 61f 65f
8:04 3.5ft 5s 13 16 mph 997.7mb 61f 65f
7:04 4ft 6s 13 16 mph 997.9mb 61f 65f
6:04 4ft 5s 9 11 mph 998.2mb 61f 64f
5:04 4.5ft 6s 11
mph
998.4mb 61f 64f
4:04 4.5ft 6s 16 18 mph 999mb 61f 64f
3:04 4.5ft 5s 18
mph
999.5mb 61f 65f
2:04 4ft 5s 16
mph
999.8mb 61f 65f
1:04 3ft 8s 18 20 mph 1000.5mb 61f 65f
12:04 2.5ft 6s 13 16 mph 1002.1mb 61f 63f
11:04 2.5ft 5s 13 16 mph 1002.1mb 61f 62f
10:04 2.5ft 5s 9 11 mph 1002.8mb 61f 63f
9:04 2.5ft 5s 9 11 mph 1003.7mb 61f 63f
8:04 3ft 5s 11 13 mph 1003.6mb 60f 62f
7:04 2.5ft 5s 9 11 mph 1003.9mb 60f 63f
6:04 3ft 5s 9
mph
1004.2mb 60f 63f
5:04 3ft 5s 9
mph
1004.2mb 59f 62f
12:04 3.5ft 5s 11
mph
1004.5mb 60f 63f
dom 07/27 11:04 3.5ft 5s 9 11 mph 1004.7mb 60f 63f
10:04 3.5ft 5s 9
mph
1005.1mb 60f 63f
9:04 4.5ft 5s 9 11 mph 1005.5mb 60f 63f
8:04 5ft 6s 11 13 mph 1005.4mb 60f 63f
7:04 5ft 5s 16 20 mph 1005.6mb 60f 64f
6:04 5ft 5s 16 18 mph 1005.9mb 60f 64f
5:04 4ft 5s 16 18 mph 1006.3mb 60f 65f
4:04 4.5ft 5s 16 18 mph 1006.9mb 60f 65f
3:04 3.5ft 4s 16 18 mph 1007.2mb 60f 65f
2:04 2.5ft 5s 13 16 mph 1007.1mb 60f 65f
1:04 3ft 8s 11 13 mph 1007.6mb 60f 64f
12:04 3.5ft 6s 13 16 mph 1007.8mb 61f 64f
11:04 3.5ft 5s 11 13 mph 1008.3mb 61f 64f
10:04 3.5ft 6s 9
mph
1008.9mb 60f 63f
9:04 3.5ft 8s 11
mph
1009.2mb 60f 63f
8:04 3.5ft 5s 9 11 mph 1009.3mb 60f 63f
sáb 07/26 11:04 3.5ft 5s 11
mph
1010.3mb 60f 63f
10:04 4.5ft 5s 13
mph
1010.5mb 59f 64f
9:04 4.5ft 5s 16 18 mph 1010.4mb 59f 64f
8:04 3.5ft 5s 16 18 mph 1009.9mb 60f 65f
7:04 3.5ft 5s 16 18 mph 1010.3mb 60f 65f
6:04 2.5ft 5s 13 16 mph 1010.4mb 60f 65f